This is the latest recevied weather packets stored in our database for station/object N6WDO. If no packets are shown the sender has not sent any weather packets the latest 10 day(s).
| Time | Temp. | Humidity | Pressure | Rain* | Wind** | Luminosity | Snow |
|---|---|---|---|---|---|---|---|
| 1778087459 | 18.33° C | 59% | 1021.5 hPa | 0 mm | - | 558 W/m² | - |
| 1778085332 | 17.22° C | 63% | 1021.7 hPa | 0 mm | - | 469 W/m² | - |
| 1778085028 | 16.67° C | 59% | 1021.5 hPa | 0 mm | - | 456 W/m² | - |
| 1778084422 | 16.11° C | 65% | 1021.7 hPa | 0 mm | - | 428 W/m² | - |
| 1778083816 | 16.67° C | 65% | 1021.5 hPa | 0 mm | - | 397 W/m² | - |
| 1778083211 | 16.11° C | 67% | 1021.5 hPa | 0 mm | - | 369 W/m² | - |
| 1778080591 | 15.56° C | 76% | 1021.7 hPa | 0 mm | - | 201 W/m² | - |
| 1778079075 | 13.33° C | 82% | 1021.7 hPa | 0 mm | - | 124 W/m² | - |
| 1778076957 | 9.44° C | 98% | 1021.5 hPa | 0 mm | - | 64 W/m² | - |
| 1778076656 | 9.44° C | 99% | 1021.7 hPa | 0 mm | - | 49 W/m² | - |
| 1778076353 | 8.89° C | 99% | 1021.5 hPa | 0 mm | - | 52 W/m² | - |
| 1778075747 | 7.78° C | 99% | 1021.3 hPa | 0 mm | - | 28 W/m² | - |
| 1778074533 | 6.67° C | 99% | 1021.4 hPa | 0 mm | - | 23 W/m² | - |
| 1778074230 | 6.11° C | 99% | 1021.5 hPa | 0 mm | - | 16 W/m² | - |
| 1778073927 | 6.11° C | 99% | 1021 hPa | 0 mm | - | 14 W/m² | - |
| 1778073321 | 6.11° C | 99% | 1021.1 hPa | 0 mm | - | 9 W/m² | - |
| 1778072412 | 6.11° C | 99% | 1020.9 hPa | 0 mm | - | 3 W/m² | - |
| 1778071808 | 6.67° C | 99% | 1020.6 hPa | 0 mm | - | 1 W/m² | - |
| 1778070901 | 6.11° C | 99% | 1020.6 hPa | 0 mm | - | 0 W/m² | - |
| 1778070598 | 6.11° C | 99% | 1020.5 hPa | 0 mm | - | 0 W/m² | - |
| 1778069993 | 6.67° C | 99% | 1020.4 hPa | 0 mm | - | 0 W/m² | - |
| 1778069690 | 6.67° C | 99% | 1020.4 hPa | 0 mm | - | 0 W/m² | - |
| 1778069386 | 6.67° C | 99% | 1020.6 hPa | 0 mm | - | 0 W/m² | - |
| 1778069084 | 6.67° C | 99% | 1020.3 hPa | 0 mm | - | 0 W/m² | - |
| 1778068781 | 6.67° C | 99% | 1020.6 hPa | 0 mm | - | 0 W/m² | - |
* Rain latest hour (hover to see other rain measurements)
** Current wind speed in m/s (hover to see current wind gust speed)